createdAt,value
2017-12-14T00:02:24.205Z,95.40
2017-12-14T00:04:51.721Z,95.40
2017-12-14T00:07:19.253Z,95.20
2017-12-14T00:09:46.760Z,95.20
2017-12-14T00:12:14.301Z,95.20
2017-12-14T00:14:41.818Z,95.20
2017-12-14T00:17:09.745Z,95.20
2017-12-14T00:19:37.276Z,95.30
2017-12-14T00:22:04.794Z,95.30
2017-12-14T00:24:32.664Z,95.50
2017-12-14T00:27:00.968Z,95.50
2017-12-14T00:29:28.497Z,95.30
2017-12-14T00:31:56.388Z,95.30
2017-12-14T00:34:24.693Z,95.60
2017-12-14T00:36:52.600Z,95.10
2017-12-14T00:39:20.117Z,95.00
2017-12-14T00:41:47.653Z,94.90
2017-12-14T00:44:15.172Z,94.70
2017-12-14T00:46:42.684Z,94.40
2017-12-14T00:49:10.217Z,94.40
2017-12-14T00:51:38.484Z,94.80
2017-12-14T00:54:06.772Z,94.90
2017-12-14T00:56:34.318Z,94.60
2017-12-14T00:59:02.594Z,95.00
2017-12-14T01:01:31.321Z,95.20
2017-12-14T01:03:59.774Z,95.20
2017-12-14T01:06:28.593Z,95.40
2017-12-14T01:08:56.632Z,95.10
2017-12-14T01:11:24.685Z,95.20
2017-12-14T01:13:52.733Z,95.10
2017-12-14T01:16:20.793Z,95.10
2017-12-14T01:18:48.850Z,95.10
2017-12-14T01:21:16.908Z,95.30
2017-12-14T01:23:45.718Z,95.30
2017-12-14T01:26:14.793Z,95.20
2017-12-14T01:28:43.230Z,95.30
2017-12-14T01:31:11.300Z,95.40
2017-12-14T01:33:40.106Z,95.50
2017-12-14T01:36:07.720Z,95.20
2017-12-14T01:38:35.238Z,95.20
2017-12-14T01:41:03.533Z,95.60
2017-12-14T01:43:31.053Z,95.40
2017-12-14T01:45:59.781Z,95.20
2017-12-14T01:48:28.162Z,95.30
2017-12-14T01:50:56.072Z,94.80
2017-12-14T01:53:23.633Z,94.80
2017-12-14T01:55:52.008Z,94.70
2017-12-14T01:58:19.513Z,94.90
2017-12-14T02:00:47.866Z,94.90
2017-12-14T02:03:15.450Z,95.00
2017-12-14T02:05:42.913Z,94.80
2017-12-14T02:08:11.193Z,94.80
2017-12-14T02:10:38.749Z,95.00
2017-12-14T02:13:06.261Z,95.00
2017-12-14T02:15:33.802Z,94.90
2017-12-14T02:18:02.083Z,94.90
2017-12-14T02:20:29.600Z,94.90
2017-12-14T02:22:57.137Z,94.80
2017-12-14T02:25:25.408Z,95.10
2017-12-14T02:27:53.684Z,95.10
2017-12-14T02:30:21.980Z,95.10
2017-12-14T02:32:50.269Z,95.50
2017-12-14T02:35:18.525Z,95.60
2017-12-14T02:37:46.046Z,95.20
2017-12-14T02:40:13.549Z,94.90
2017-12-14T02:42:41.044Z,94.70
2017-12-14T02:45:08.561Z,94.70
2017-12-14T02:47:36.052Z,94.70
2017-12-14T02:50:03.572Z,94.70
2017-12-14T02:52:31.098Z,94.80
2017-12-14T02:54:58.594Z,94.70
2017-12-14T02:57:26.977Z,94.90
2017-12-14T02:59:54.468Z,94.90
2017-12-14T03:02:22.733Z,94.80
2017-12-14T03:04:51.004Z,95.00
2017-12-14T03:07:19.264Z,94.80
2017-12-14T03:09:46.776Z,94.30
2017-12-14T03:12:14.268Z,94.10
2017-12-14T03:14:41.776Z,93.80
2017-12-14T03:17:09.664Z,94.00
2017-12-14T03:19:37.197Z,94.40
2017-12-14T03:22:04.698Z,94.30
2017-12-14T03:24:32.203Z,94.20
2017-12-14T03:27:00.471Z,94.50
2017-12-14T03:29:28.727Z,93.80
2017-12-14T03:31:56.241Z,92.90
2017-12-14T03:34:23.741Z,93.00
2017-12-14T03:36:51.650Z,92.40
2017-12-14T03:39:19.169Z,91.60
2017-12-14T03:41:46.664Z,91.30
2017-12-14T03:44:14.265Z,92.00
2017-12-14T03:46:41.824Z,92.30
2017-12-14T03:49:09.733Z,92.50
2017-12-14T03:51:37.252Z,92.90
2017-12-14T03:54:05.214Z,93.10
2017-12-14T03:56:33.278Z,92.90
2017-12-14T03:59:02.101Z,92.60
2017-12-14T04:01:30.258Z,91.50
2017-12-14T04:03:58.329Z,91.30
2017-12-14T04:06:26.382Z,91.20
2017-12-14T04:08:55.185Z,89.20
2017-12-14T04:11:23.337Z,87.70
2017-12-14T04:13:52.165Z,89.00
2017-12-14T04:16:20.301Z,89.40
2017-12-14T04:18:48.790Z,90.00
2017-12-14T04:21:16.464Z,88.30
2017-12-14T04:23:44.024Z,87.00
2017-12-14T04:26:11.588Z,86.40
2017-12-14T04:28:39.970Z,86.30
2017-12-14T04:31:07.521Z,85.80
2017-12-14T04:33:35.436Z,85.50
2017-12-14T04:36:03.736Z,84.40
2017-12-14T04:38:31.333Z,83.00
2017-12-14T04:40:58.897Z,82.10
2017-12-14T04:43:26.448Z,79.30
2017-12-14T04:45:54.373Z,79.20
2017-12-14T04:48:22.637Z,78.50
2017-12-14T04:50:50.137Z,78.50
2017-12-14T04:53:18.057Z,76.70
2017-12-14T04:55:46.036Z,76.40
2017-12-14T04:58:13.662Z,75.60
2017-12-14T05:00:41.936Z,75.90
2017-12-14T05:03:09.497Z,76.50
2017-12-14T05:05:37.000Z,76.90
2017-12-14T05:08:05.268Z,74.00
2017-12-14T05:10:33.179Z,71.00
2017-12-14T05:13:00.668Z,74.70
2017-12-14T05:15:28.233Z,73.10
2017-12-14T05:17:55.776Z,71.60
2017-12-14T05:20:23.298Z,70.00
2017-12-14T05:22:51.624Z,67.10
2017-12-14T05:25:19.180Z,63.00
2017-12-14T05:27:46.737Z,63.10
2017-12-14T05:30:15.080Z,62.70
2017-12-14T05:32:43.392Z,64.00
2017-12-14T05:35:10.956Z,65.50
2017-12-14T05:37:38.509Z,65.70
2017-12-14T05:40:06.072Z,65.00
2017-12-14T05:42:33.624Z,65.80
2017-12-14T05:45:01.289Z,63.40
2017-12-14T05:47:29.513Z,65.40
2017-12-14T05:49:57.781Z,65.70
2017-12-14T05:52:25.304Z,64.80
2017-12-14T05:54:52.865Z,64.70
2017-12-14T05:57:20.382Z,64.80
2017-12-14T05:59:48.640Z,64.50
2017-12-14T06:02:16.930Z,65.30
2017-12-14T06:04:45.193Z,63.40
2017-12-14T06:07:14.199Z,63.20
2017-12-14T06:09:42.473Z,61.40
2017-12-14T06:12:10.736Z,59.00
2017-12-14T06:14:38.245Z,57.90
2017-12-14T06:17:05.818Z,58.00
2017-12-14T06:19:33.327Z,60.60
2017-12-14T06:22:01.592Z,64.30
2017-12-14T06:24:29.113Z,55.90
2017-12-14T06:26:56.676Z,59.90
2017-12-14T06:29:24.229Z,51.30
2017-12-14T06:31:51.736Z,51.00
2017-12-14T06:34:20.082Z,53.20
2017-12-14T06:36:48.117Z,47.60
2017-12-14T06:39:16.177Z,48.40
2017-12-14T06:41:44.221Z,50.50
2017-12-14T06:44:12.280Z,50.90
2017-12-14T06:46:40.865Z,52.50
2017-12-14T06:49:08.918Z,51.30
2017-12-14T06:51:36.976Z,51.80
2017-12-14T06:54:05.034Z,52.80
2017-12-14T06:56:33.076Z,52.30
2017-12-14T06:59:01.900Z,52.40
2017-12-14T07:01:29.969Z,50.90
2017-12-14T07:03:58.037Z,51.10
2017-12-14T07:06:26.106Z,50.80
2017-12-14T07:08:54.144Z,51.00
2017-12-14T07:11:22.979Z,50.80
2017-12-14T07:13:51.050Z,51.10
2017-12-14T07:16:19.114Z,50.30
2017-12-14T07:18:47.235Z,49.80
2017-12-14T07:21:15.357Z,50.30
2017-12-14T07:23:43.407Z,49.20
2017-12-14T07:26:12.344Z,50.00
2017-12-14T07:28:40.393Z,48.20
2017-12-14T07:31:08.460Z,48.60
2017-12-14T07:33:36.503Z,50.10
2017-12-14T07:36:05.325Z,50.80
2017-12-14T07:38:33.401Z,51.70
2017-12-14T07:41:01.881Z,51.30
2017-12-14T07:43:29.932Z,50.50
2017-12-14T07:46:10.009Z,50.10
2017-12-14T07:48:38.487Z,49.50
2017-12-14T07:51:06.524Z,50.20
2017-12-14T07:53:34.985Z,49.20
2017-12-14T07:56:03.038Z,47.30
2017-12-14T07:58:31.600Z,47.20
2017-12-14T08:00:59.641Z,46.10
2017-12-14T08:03:28.553Z,46.90
2017-12-14T08:05:56.605Z,46.60
2017-12-14T08:08:24.701Z,44.80
2017-12-14T08:10:52.789Z,44.30
2017-12-14T08:13:20.949Z,45.30
2017-12-14T08:15:49.125Z,47.10
2017-12-14T08:18:17.164Z,48.90
2017-12-14T08:20:45.605Z,50.00
2017-12-14T08:23:13.670Z,49.90
2017-12-14T08:25:41.817Z,49.40
2017-12-14T08:28:09.900Z,49.80
2017-12-14T08:30:39.073Z,50.20
2017-12-14T08:33:07.987Z,49.30
2017-12-14T08:35:36.054Z,50.00
2017-12-14T08:38:04.121Z,50.90
2017-12-14T08:40:32.163Z,50.40
2017-12-14T08:43:00.677Z,50.50
2017-12-14T08:45:28.712Z,51.20
2017-12-14T08:47:57.553Z,52.60
2017-12-14T08:50:25.715Z,52.00
2017-12-14T08:52:53.776Z,49.70
2017-12-14T08:55:21.860Z,44.30
2017-12-14T08:57:49.930Z,40.10
2017-12-14T09:00:17.993Z,36.80
2017-12-14T09:02:46.788Z,35.70
2017-12-14T09:05:14.855Z,33.80
2017-12-14T09:07:43.197Z,34.50
2017-12-14T09:10:10.704Z,33.90
2017-12-14T09:12:38.276Z,37.20
2017-12-14T09:15:05.772Z,42.70
2017-12-14T09:17:33.290Z,42.10
2017-12-14T09:20:00.853Z,43.60
2017-12-14T09:22:28.372Z,42.00
2017-12-14T09:24:56.632Z,39.60
2017-12-14T09:27:24.969Z,38.20
2017-12-14T09:29:52.484Z,35.10
2017-12-14T09:32:19.989Z,32.00
2017-12-14T09:34:47.520Z,32.20
2017-12-14T09:37:15.020Z,30.50
2017-12-14T09:39:42.571Z,29.90
2017-12-14T09:42:10.125Z,32.50
2017-12-14T09:44:37.736Z,36.20
2017-12-14T09:47:05.209Z,36.00
2017-12-14T09:49:33.108Z,39.70
2017-12-14T09:52:00.603Z,43.20
2017-12-14T09:54:28.116Z,44.10
2017-12-14T09:56:55.693Z,47.20
2017-12-14T09:59:23.200Z,49.00
2017-12-14T10:01:51.455Z,49.10
2017-12-14T10:04:18.974Z,50.30
2017-12-14T10:06:46.464Z,50.60
2017-12-14T10:09:14.414Z,50.80
2017-12-14T10:11:41.965Z,50.90
2017-12-14T10:14:09.484Z,50.60
2017-12-14T10:16:37.744Z,48.70
2017-12-14T10:19:05.632Z,47.60
2017-12-14T10:21:33.145Z,48.00
2017-12-14T10:24:00.661Z,48.70
2017-12-14T10:26:28.964Z,48.90
2017-12-14T10:28:56.488Z,48.00
2017-12-14T10:31:24.735Z,48.50
2017-12-14T10:33:53.161Z,48.30
2017-12-14T10:36:21.230Z,48.70
2017-12-14T10:38:49.573Z,49.10
2017-12-14T10:41:17.904Z,48.50
2017-12-14T10:43:45.417Z,48.60
2017-12-14T10:46:13.696Z,49.90
2017-12-14T10:48:42.015Z,49.30
2017-12-14T10:51:09.516Z,48.30
2017-12-14T10:53:37.037Z,49.10
2017-12-14T10:56:04.544Z,48.10
2017-12-14T10:58:32.872Z,48.60
2017-12-14T11:01:06.197Z,47.60
2017-12-14T11:03:33.729Z,46.80
2017-12-14T11:06:01.228Z,47.60
2017-12-14T11:08:28.746Z,47.60
2017-12-14T11:10:56.240Z,47.00
2017-12-14T11:13:23.759Z,45.80
2017-12-14T11:15:51.329Z,46.00
2017-12-14T11:18:18.884Z,45.80
2017-12-14T11:20:47.156Z,46.10
2017-12-14T11:23:14.657Z,45.70
2017-12-14T11:25:42.190Z,46.10
2017-12-14T11:28:09.689Z,45.50
2017-12-14T11:30:37.953Z,47.10
2017-12-14T11:33:06.238Z,46.60
2017-12-14T11:35:34.503Z,46.90
2017-12-14T11:38:02.032Z,47.10
2017-12-14T11:40:29.591Z,46.70
2017-12-14T11:42:57.532Z,46.70
2017-12-14T11:45:24.988Z,46.10
2017-12-14T11:47:52.569Z,46.90
2017-12-14T11:50:20.071Z,46.80
2017-12-14T11:52:47.588Z,45.70
2017-12-14T11:55:15.101Z,46.20
2017-12-14T11:57:43.438Z,46.70
2017-12-14T12:00:10.953Z,46.40
2017-12-14T12:02:38.516Z,45.90
2017-12-14T12:05:06.076Z,46.30
2017-12-14T12:07:33.669Z,44.70
2017-12-14T12:10:01.224Z,46.10
2017-12-14T12:12:28.740Z,45.90
2017-12-14T12:14:56.765Z,45.50
2017-12-14T12:17:25.037Z,44.90
2017-12-14T12:19:52.536Z,43.70
2017-12-14T12:22:20.869Z,45.00
2017-12-14T12:24:49.261Z,44.50
2017-12-14T12:27:16.757Z,45.60
2017-12-14T12:29:45.038Z,46.00
2017-12-14T12:32:13.366Z,47.10
2017-12-14T12:34:40.868Z,47.10
2017-12-14T12:37:09.197Z,49.10
2017-12-14T12:39:37.174Z,50.50
2017-12-14T12:42:05.625Z,52.60
2017-12-14T12:44:34.025Z,57.20
2017-12-14T12:47:01.912Z,58.00
2017-12-14T12:49:29.420Z,60.10
2017-12-14T12:51:56.920Z,61.50
2017-12-14T12:54:24.479Z,64.70
2017-12-14T12:56:52.756Z,64.90
2017-12-14T12:59:20.313Z,65.20
2017-12-14T13:01:47.865Z,66.50
2017-12-14T13:04:15.421Z,68.20
2017-12-14T13:06:43.687Z,68.20
2017-12-14T13:09:11.201Z,67.90
2017-12-14T13:11:39.541Z,67.80
2017-12-14T13:14:07.036Z,66.20
2017-12-14T13:16:34.966Z,65.50
2017-12-14T13:19:02.529Z,66.60
2017-12-14T13:21:30.084Z,65.70
2017-12-14T13:23:57.577Z,68.00
2017-12-14T13:26:26.679Z,68.00
2017-12-14T13:28:54.148Z,68.70
2017-12-14T13:31:22.408Z,69.80
2017-12-14T13:33:49.928Z,70.60
2017-12-14T13:36:17.491Z,70.80
2017-12-14T13:38:44.997Z,71.20
2017-12-14T13:41:13.277Z,72.60
2017-12-14T13:43:41.609Z,75.80
2017-12-14T13:46:09.124Z,76.80
2017-12-14T13:48:37.012Z,78.20
2017-12-14T13:51:04.999Z,78.00
2017-12-14T13:53:32.492Z,78.40
2017-12-14T13:56:01.525Z,77.90
2017-12-14T13:58:29.047Z,77.90
2017-12-14T14:00:57.030Z,77.30
2017-12-14T14:03:24.537Z,77.70
2017-12-14T14:05:52.056Z,79.20
2017-12-14T14:08:20.327Z,77.80
2017-12-14T14:10:48.605Z,77.30
2017-12-14T14:13:16.877Z,76.50
2017-12-14T14:15:45.145Z,77.60
2017-12-14T14:18:12.664Z,78.00
2017-12-14T14:20:40.172Z,77.40
2017-12-14T14:23:08.437Z,79.70
2017-12-14T14:25:35.961Z,79.20
2017-12-14T14:28:03.544Z,79.20
2017-12-14T14:30:31.072Z,79.60
2017-12-14T14:32:58.640Z,79.30
2017-12-14T14:35:26.141Z,79.90
2017-12-14T14:37:54.074Z,80.90
2017-12-14T14:40:21.624Z,80.80
2017-12-14T14:42:49.149Z,81.00
2017-12-14T14:45:16.668Z,82.10
2017-12-14T14:47:44.221Z,81.80
2017-12-14T14:50:12.584Z,82.00
2017-12-14T14:52:40.149Z,83.00
2017-12-14T14:55:07.705Z,84.20
2017-12-14T14:57:35.209Z,85.70
2017-12-14T15:00:03.543Z,87.30
2017-12-14T15:02:31.032Z,86.90
2017-12-14T15:05:00.062Z,89.10
2017-12-14T15:07:27.604Z,87.70
2017-12-14T15:09:55.878Z,87.20
2017-12-14T15:12:24.144Z,87.20
2017-12-14T15:14:52.485Z,87.30
2017-12-14T15:17:20.046Z,87.30
2017-12-14T15:19:47.600Z,86.80
2017-12-14T15:22:15.096Z,87.50
2017-12-14T15:24:42.731Z,87.10
2017-12-14T15:27:10.281Z,88.10
2017-12-14T15:29:38.566Z,88.50
2017-12-14T15:32:06.077Z,89.90
2017-12-14T15:34:33.686Z,89.80
2017-12-14T15:37:01.236Z,90.30
2017-12-14T15:39:28.796Z,89.80
2017-12-14T15:41:56.288Z,90.00
2017-12-14T15:44:24.648Z,90.50
2017-12-14T15:46:52.852Z,89.90
2017-12-14T15:49:21.190Z,88.80
2017-12-14T15:51:48.755Z,86.70
2017-12-14T15:54:16.665Z,86.90
2017-12-14T15:56:45.000Z,86.60
2017-12-14T15:59:12.526Z,86.60
2017-12-14T16:01:40.021Z,87.60
2017-12-14T16:04:07.515Z,85.90
2017-12-14T16:06:35.429Z,86.60
2017-12-14T16:09:02.924Z,86.80
2017-12-14T16:11:30.448Z,84.70
2017-12-14T16:13:58.017Z,84.70
2017-12-14T16:16:25.530Z,84.50
2017-12-14T16:18:53.448Z,84.50
2017-12-14T16:21:21.037Z,85.00
2017-12-14T16:23:49.376Z,83.80
2017-12-14T16:26:17.348Z,82.50
2017-12-14T16:28:44.916Z,83.80
2017-12-14T16:31:12.440Z,84.20
2017-12-14T16:33:39.981Z,84.60
2017-12-14T16:36:07.589Z,83.20
2017-12-14T16:38:35.145Z,85.00
2017-12-14T16:41:02.717Z,85.00
2017-12-14T16:43:30.232Z,84.20
2017-12-14T16:45:57.748Z,84.50
2017-12-14T16:48:26.056Z,84.10
2017-12-14T16:50:53.969Z,84.20
2017-12-14T16:53:21.536Z,85.20
2017-12-14T16:55:49.077Z,85.10
2017-12-14T16:58:16.648Z,85.90
2017-12-14T17:00:44.212Z,86.00
2017-12-14T17:03:11.740Z,86.60
2017-12-14T17:05:39.334Z,87.60
2017-12-14T17:08:06.896Z,88.00
2017-12-14T17:10:34.408Z,88.50
2017-12-14T17:13:02.024Z,89.50
2017-12-14T17:15:29.573Z,90.20
2017-12-14T17:17:57.097Z,90.50
2017-12-14T17:20:24.696Z,90.90
2017-12-14T17:22:52.212Z,91.20
2017-12-14T17:25:19.740Z,91.20
2017-12-14T17:27:48.068Z,91.80
2017-12-14T17:30:15.644Z,91.60
2017-12-14T17:32:43.594Z,91.70
2017-12-14T17:35:11.181Z,91.90
2017-12-14T17:37:38.712Z,92.40
2017-12-14T17:40:06.229Z,92.70
2017-12-14T17:42:34.524Z,92.60
2017-12-14T17:45:02.458Z,92.60
2017-12-14T17:47:30.000Z,92.40
2017-12-14T17:49:57.556Z,92.50
2017-12-14T17:52:25.856Z,92.60
2017-12-14T17:54:54.216Z,92.30
2017-12-14T17:57:22.145Z,92.10
2017-12-14T17:59:50.449Z,92.40
2017-12-14T18:02:18.733Z,92.50
2017-12-14T18:04:47.121Z,92.40
2017-12-14T18:07:15.028Z,92.30
2017-12-14T18:09:43.316Z,91.70
2017-12-14T18:12:11.616Z,91.30
2017-12-14T18:14:39.981Z,91.10
2017-12-14T18:17:08.746Z,91.70
2017-12-14T18:19:36.678Z,92.30
2017-12-14T18:22:04.429Z,92.20
2017-12-14T18:24:32.713Z,92.00
2017-12-14T18:27:00.996Z,91.80
2017-12-14T18:29:29.061Z,91.40
2017-12-14T18:31:57.356Z,90.10
2017-12-14T18:34:26.402Z,89.90
2017-12-14T18:36:55.134Z,88.90
2017-12-14T18:39:22.694Z,90.10
2017-12-14T18:41:50.701Z,90.00
2017-12-14T18:44:18.918Z,90.10
2017-12-14T18:46:46.816Z,90.50
2017-12-14T18:49:14.757Z,90.20
2017-12-14T18:51:42.966Z,90.80
2017-12-14T18:54:10.615Z,90.40
2017-12-14T18:56:38.129Z,90.40
2017-12-14T18:59:05.832Z,91.00
2017-12-14T19:01:33.763Z,91.00
2017-12-14T19:04:02.171Z,90.50
2017-12-14T19:06:30.166Z,90.90
2017-12-14T19:08:57.718Z,90.20
2017-12-14T19:11:26.136Z,90.50
2017-12-14T19:13:54.096Z,90.10
2017-12-14T19:16:22.126Z,90.50
2017-12-14T19:18:50.037Z,90.10
2017-12-14T19:21:17.657Z,90.10
2017-12-14T19:23:45.721Z,90.10
2017-12-14T19:26:13.644Z,90.40
2017-12-14T19:28:41.908Z,90.20
2017-12-14T19:31:10.193Z,90.00
2017-12-14T19:33:38.532Z,90.00
2017-12-14T19:36:06.492Z,90.20
2017-12-14T19:38:34.021Z,88.70
2017-12-14T19:41:02.341Z,88.00
2017-12-14T19:43:29.893Z,87.10
2017-12-14T19:45:57.812Z,86.50
2017-12-14T19:48:25.724Z,86.50
2017-12-14T19:50:53.289Z,86.30
2017-12-14T19:53:20.808Z,85.90
2017-12-14T19:55:48.812Z,86.00
2017-12-14T19:58:16.783Z,85.70
2017-12-14T20:00:45.232Z,85.90
2017-12-14T20:03:13.232Z,84.40
2017-12-14T20:05:41.568Z,84.30
2017-12-14T20:08:09.582Z,85.10
2017-12-14T20:10:37.975Z,84.50
2017-12-14T20:13:05.937Z,84.70
2017-12-14T20:15:35.072Z,86.10
2017-12-14T20:18:03.409Z,86.30
2017-12-14T20:20:31.794Z,86.00
2017-12-14T20:22:59.714Z,85.70
2017-12-14T20:25:28.009Z,85.80
2017-12-14T20:27:56.722Z,85.60
2017-12-14T20:30:24.284Z,87.10
2017-12-14T20:32:52.184Z,85.60
2017-12-14T20:35:20.109Z,85.60
2017-12-14T20:37:48.084Z,85.20
2017-12-14T20:40:15.997Z,85.50
2017-12-14T20:42:43.951Z,86.40
2017-12-14T20:45:11.902Z,86.00
2017-12-14T20:47:40.189Z,85.90
2017-12-14T20:50:08.549Z,86.60
2017-12-14T20:52:36.481Z,86.90
2017-12-14T20:55:04.758Z,86.00
2017-12-14T20:57:32.720Z,86.00
2017-12-14T21:00:00.984Z,86.70
2017-12-14T21:02:29.252Z,86.70
2017-12-14T21:04:57.605Z,87.40
2017-12-14T21:07:25.569Z,88.00
2017-12-14T21:09:53.844Z,88.30
2017-12-14T21:12:22.120Z,88.40
2017-12-14T21:14:50.477Z,86.70
2017-12-14T21:17:18.364Z,85.90
2017-12-14T21:19:46.628Z,85.90
2017-12-14T21:22:14.908Z,86.90
2017-12-14T21:24:42.884Z,87.00
2017-12-14T21:27:11.237Z,86.90
2017-12-14T21:29:39.544Z,87.70
2017-12-14T21:32:07.822Z,88.60
2017-12-14T21:34:35.708Z,89.00
2017-12-14T21:37:04.733Z,90.10
2017-12-14T21:39:32.269Z,89.70
2017-12-14T21:42:00.630Z,90.50
2017-12-14T21:44:28.145Z,90.20
2017-12-14T21:46:56.413Z,90.50
2017-12-14T21:49:24.330Z,90.90
2017-12-14T21:51:52.248Z,91.40
2017-12-14T21:54:20.510Z,91.20
2017-12-14T21:56:48.848Z,91.00
2017-12-14T21:59:16.741Z,91.20
2017-12-14T22:01:44.261Z,91.60
2017-12-14T22:04:11.752Z,91.70
2017-12-14T22:06:40.825Z,91.90
2017-12-14T22:09:08.337Z,91.80
2017-12-14T22:11:36.247Z,92.00
2017-12-14T22:14:04.542Z,92.20
2017-12-14T22:16:32.024Z,92.60
2017-12-14T22:18:59.542Z,92.90
2017-12-14T22:21:27.056Z,93.00
2017-12-14T22:23:55.316Z,93.50
2017-12-14T22:26:23.592Z,93.50
2017-12-14T22:28:51.113Z,93.50
2017-12-14T22:31:18.629Z,93.50
2017-12-14T22:33:46.924Z,94.10
2017-12-14T22:36:14.421Z,94.00
2017-12-14T22:38:41.928Z,93.80
2017-12-14T22:41:10.197Z,93.80
2017-12-14T22:43:38.473Z,94.00
2017-12-14T22:46:06.085Z,93.90
2017-12-14T22:48:33.644Z,93.90
2017-12-14T22:51:01.205Z,94.20
2017-12-14T22:53:28.774Z,94.10
2017-12-14T22:55:56.320Z,94.40
2017-12-14T22:58:23.832Z,94.60
2017-12-14T23:00:52.110Z,94.10
2017-12-14T23:03:20.393Z,94.30
2017-12-14T23:05:48.664Z,94.10
2017-12-14T23:08:17.004Z,94.10
2017-12-14T23:10:44.516Z,94.10
2017-12-14T23:13:12.013Z,94.30
2017-12-14T23:15:39.564Z,94.30
2017-12-14T23:18:07.074Z,94.50
2017-12-14T23:20:34.617Z,94.50
2017-12-14T23:23:02.143Z,94.80
2017-12-14T23:25:29.641Z,95.00
2017-12-14T23:27:57.156Z,94.70
2017-12-14T23:30:24.729Z,94.80
2017-12-14T23:32:52.222Z,94.60
2017-12-14T23:35:19.740Z,94.40
2017-12-14T23:37:47.249Z,94.20
2017-12-14T23:40:15.529Z,94.40
2017-12-14T23:42:43.061Z,94.20
2017-12-14T23:45:11.345Z,94.60
2017-12-14T23:47:39.626Z,94.70
2017-12-14T23:50:07.922Z,94.90
2017-12-14T23:52:35.452Z,94.70
2017-12-14T23:55:03.751Z,94.90
2017-12-14T23:57:31.228Z,94.90
2017-12-14T23:59:58.757Z,94.80
